sensor_id;sensor_type;location;lat;lon;timestamp;pressure;altitude;pressure_sealevel;temperature;humidity
28626;BME280;18905;42.668;23.364;2023-05-03T00:02:01;95420.41;;;13.42;54.07
28626;BME280;18905;42.668;23.364;2023-05-03T00:04:27;95397.69;;;13.26;53.68
28626;BME280;18905;42.668;23.364;2023-05-03T00:06:53;95439.31;;;13.59;53.59
28626;BME280;18905;42.668;23.364;2023-05-03T00:09:19;95408.34;;;13.31;54.33
28626;BME280;18905;42.668;23.364;2023-05-03T00:11:45;95413.25;;;13.38;54.24
28626;BME280;18905;42.668;23.364;2023-05-03T00:14:10;95431.09;;;13.47;54.10
28626;BME280;18905;42.668;23.364;2023-05-03T00:16:36;95397.34;;;13.28;54.14
28626;BME280;18905;42.668;23.364;2023-05-03T00:19:01;95426.44;;;13.48;54.80
28626;BME280;18905;42.668;23.364;2023-05-03T00:21:27;95398.69;;;13.42;54.33
28626;BME280;18905;42.668;23.364;2023-05-03T00:23:52;95441.38;;;13.62;55.23
28626;BME280;18905;42.668;23.364;2023-05-03T00:26:18;95448.44;;;13.55;56.79
28626;BME280;18905;42.668;23.364;2023-05-03T00:28:43;95445.38;;;13.27;58.40
28626;BME280;18905;42.668;23.364;2023-05-03T00:31:09;95450.75;;;12.98;59.03
28626;BME280;18905;42.668;23.364;2023-05-03T00:33:36;95429.38;;;12.80;59.91
28626;BME280;18905;42.668;23.364;2023-05-03T00:36:11;95363.34;;;12.47;59.73
28626;BME280;18905;42.668;23.364;2023-05-03T00:38:37;95356.19;;;12.42;58.69
28626;BME280;18905;42.668;23.364;2023-05-03T00:41:04;95307.06;;;12.06;59.56
28626;BME280;18905;42.668;23.364;2023-05-03T00:43:33;95288.28;;;11.93;59.26
28626;BME280;18905;42.668;23.364;2023-05-03T00:46:00;95300.56;;;11.99;59.44
28626;BME280;18905;42.668;23.364;2023-05-03T00:48:28;95414.56;;;12.77;59.10
28626;BME280;18905;42.668;23.364;2023-05-03T00:50:57;95303.88;;;12.04;58.71
28626;BME280;18905;42.668;23.364;2023-05-03T00:53:25;95448.97;;;13.02;57.34
28626;BME280;18905;42.668;23.364;2023-05-03T00:55:52;95436.69;;;13.05;57.09
28626;BME280;18905;42.668;23.364;2023-05-03T00:58:19;95278.13;;;11.90;57.73
28626;BME280;18905;42.668;23.364;2023-05-03T01:00:46;95400.28;;;12.60;57.57
28626;BME280;18905;42.668;23.364;2023-05-03T01:03:15;95286.69;;;11.92;57.56
28626;BME280;18905;42.668;23.364;2023-05-03T01:05:56;95299.56;;;12.03;57.87
28626;BME280;18905;42.668;23.364;2023-05-03T01:08:37;95288.91;;;11.98;57.93
28626;BME280;18905;42.668;23.364;2023-05-03T01:11:08;95290.03;;;11.97;57.71
28626;BME280;18905;42.668;23.364;2023-05-03T01:13:50;95388.81;;;12.54;58.39
28626;BME280;18905;42.668;23.364;2023-05-03T01:16:23;95295.94;;;11.91;58.95
28626;BME280;18905;42.668;23.364;2023-05-03T01:18:53;95410.44;;;12.71;58.91
28626;BME280;18905;42.668;23.364;2023-05-03T01:21:20;95255.06;;;11.75;58.93
28626;BME280;18905;42.668;23.364;2023-05-03T01:26:25;95308.03;;;11.93;59.37
28626;BME280;18905;42.668;23.364;2023-05-03T01:28:51;95361.47;;;12.30;59.42
28626;BME280;18905;42.668;23.364;2023-05-03T01:31:21;95331.59;;;12.01;59.96
28626;BME280;18905;42.668;23.364;2023-05-03T01:33:57;95372.75;;;12.32;60.06
28626;BME280;18905;42.668;23.364;2023-05-03T01:36:29;95357.66;;;12.14;59.76
28626;BME280;18905;42.668;23.364;2023-05-03T01:39:11;95406.16;;;12.62;60.14
28626;BME280;18905;42.668;23.364;2023-05-03T01:41:39;95409.00;;;12.74;60.23
28626;BME280;18905;42.668;23.364;2023-05-03T01:44:08;95256.31;;;11.52;60.28
28626;BME280;18905;42.668;23.364;2023-05-03T01:46:41;95254.28;;;11.66;60.81
28626;BME280;18905;42.668;23.364;2023-05-03T01:49:07;95315.03;;;11.94;60.84
28626;BME280;18905;42.668;23.364;2023-05-03T01:51:33;95347.47;;;12.20;61.36
28626;BME280;18905;42.668;23.364;2023-05-03T01:53:59;95347.00;;;12.18;61.46
28626;BME280;18905;42.668;23.364;2023-05-03T01:56:25;95276.88;;;11.70;61.46
28626;BME280;18905;42.668;23.364;2023-05-03T01:58:51;95256.81;;;11.71;60.96
28626;BME280;18905;42.668;23.364;2023-05-03T02:01:17;95283.97;;;12.00;60.54
28626;BME280;18905;42.668;23.364;2023-05-03T02:03:43;95370.00;;;12.58;61.11
28626;BME280;18905;42.668;23.364;2023-05-03T02:06:08;95231.22;;;11.60;61.06
28626;BME280;18905;42.668;23.364;2023-05-03T02:08:40;95368.91;;;12.50;61.54
28626;BME280;18905;42.668;23.364;2023-05-03T02:11:06;95223.56;;;11.53;61.78
28626;BME280;18905;42.668;23.364;2023-05-03T02:13:32;95352.38;;;12.43;62.81
28626;BME280;18905;42.668;23.364;2023-05-03T02:15:57;95365.72;;;12.48;62.78
28626;BME280;18905;42.668;23.364;2023-05-03T02:18:23;95228.34;;;11.65;62.93
28626;BME280;18905;42.668;23.364;2023-05-03T02:20:56;95305.13;;;12.15;63.21
28626;BME280;18905;42.668;23.364;2023-05-03T02:23:22;95232.63;;;11.66;63.42
28626;BME280;18905;42.668;23.364;2023-05-03T02:25:48;95298.16;;;11.97;64.94
28626;BME280;18905;42.668;23.364;2023-05-03T02:28:14;95239.34;;;11.60;64.64
28626;BME280;18905;42.668;23.364;2023-05-03T02:30:40;95318.38;;;11.91;65.29
28626;BME280;18905;42.668;23.364;2023-05-03T02:33:06;95248.50;;;11.59;65.47
28626;BME280;18905;42.668;23.364;2023-05-03T02:35:32;95330.75;;;12.18;65.66
28626;BME280;18905;42.668;23.364;2023-05-03T02:37:58;95358.31;;;12.11;66.44
28626;BME280;18905;42.668;23.364;2023-05-03T02:40:24;95202.88;;;11.23;65.64
28626;BME280;18905;42.668;23.364;2023-05-03T02:42:50;95366.91;;;12.13;66.11
28626;BME280;18905;42.668;23.364;2023-05-03T02:45:16;95287.03;;;11.56;66.17
28626;BME280;18905;42.668;23.364;2023-05-03T02:47:42;95241.53;;;11.32;66.11
28626;BME280;18905;42.668;23.364;2023-05-03T02:50:08;95223.41;;;11.16;66.17
28626;BME280;18905;42.668;23.364;2023-05-03T02:52:34;95344.00;;;12.02;66.87
28626;BME280;18905;42.668;23.364;2023-05-03T02:55:00;95211.63;;;11.29;66.88
28626;BME280;18905;42.668;23.364;2023-05-03T02:57:25;95274.00;;;11.75;66.74
28626;BME280;18905;42.668;23.364;2023-05-03T02:59:51;95270.81;;;11.64;67.28
28626;BME280;18905;42.668;23.364;2023-05-03T03:02:17;95239.63;;;11.67;66.60
28626;BME280;18905;42.668;23.364;2023-05-03T03:04:43;95348.69;;;12.48;65.54
28626;BME280;18905;42.668;23.364;2023-05-03T03:07:08;95258.22;;;11.86;64.13
28626;BME280;18905;42.668;23.364;2023-05-03T03:09:34;95288.09;;;11.98;64.64
28626;BME280;18905;42.668;23.364;2023-05-03T03:12:01;95347.78;;;12.27;65.30
28626;BME280;18905;42.668;23.364;2023-05-03T03:14:29;95217.19;;;11.41;66.31
28626;BME280;18905;42.668;23.364;2023-05-03T03:16:55;95347.63;;;12.23;68.74
28626;BME280;18905;42.668;23.364;2023-05-03T03:19:21;95240.41;;;11.76;69.42
28626;BME280;18905;42.668;23.364;2023-05-03T03:21:46;95279.88;;;11.86;66.15
28626;BME280;18905;42.668;23.364;2023-05-03T03:24:12;95298.63;;;11.99;65.96
28626;BME280;18905;42.668;23.364;2023-05-03T03:26:37;95271.75;;;11.77;66.95
28626;BME280;18905;42.668;23.364;2023-05-03T03:29:03;95242.47;;;11.45;66.62
28626;BME280;18905;42.668;23.364;2023-05-03T03:31:42;95357.19;;;12.29;66.06
28626;BME280;18905;42.668;23.364;2023-05-03T03:34:11;95251.25;;;11.42;66.46
28626;BME280;18905;42.668;23.364;2023-05-03T03:36:38;95367.69;;;12.22;66.74
28626;BME280;18905;42.668;23.364;2023-05-03T03:39:04;95400.00;;;12.44;67.40
28626;BME280;18905;42.668;23.364;2023-05-03T03:41:31;95269.84;;;11.35;68.21
28626;BME280;18905;42.668;23.364;2023-05-03T03:44:00;95266.50;;;11.38;68.18
28626;BME280;18905;42.668;23.364;2023-05-03T03:46:26;95306.59;;;11.78;67.96
28626;BME280;18905;42.668;23.364;2023-05-03T03:48:52;95252.66;;;11.22;68.54
28626;BME280;18905;42.668;23.364;2023-05-03T03:51:18;95386.66;;;12.14;67.90
28626;BME280;18905;42.668;23.364;2023-05-03T03:53:44;95306.13;;;11.51;76.05
28626;BME280;18905;42.668;23.364;2023-05-03T03:56:09;95410.47;;;12.54;83.14
28626;BME280;18905;42.668;23.364;2023-05-03T03:58:35;95327.38;;;12.38;74.22
28626;BME280;18905;42.668;23.364;2023-05-03T04:01:01;95342.94;;;12.49;68.87
28626;BME280;18905;42.668;23.364;2023-05-03T04:03:27;95300.84;;;12.06;66.00
28626;BME280;18905;42.668;23.364;2023-05-03T04:05:53;95286.38;;;11.93;65.87
28626;BME280;18905;42.668;23.364;2023-05-03T04:08:19;95351.28;;;12.27;68.26
28626;BME280;18905;42.668;23.364;2023-05-03T04:10:45;95271.13;;;11.20;67.14
28626;BME280;18905;42.668;23.364;2023-05-03T04:13:10;95275.56;;;11.25;67.51
28626;BME280;18905;42.668;23.364;2023-05-03T04:15:36;95445.41;;;12.13;68.49
28626;BME280;18905;42.668;23.364;2023-05-03T04:18:04;95329.63;;;11.25;69.46
28626;BME280;18905;42.668;23.364;2023-05-03T04:20:30;95313.06;;;11.18;69.98
28626;BME280;18905;42.668;23.364;2023-05-03T04:22:58;95331.06;;;11.48;69.02
28626;BME280;18905;42.668;23.364;2023-05-03T04:25:24;95393.31;;;11.82;69.26
28626;BME280;18905;42.668;23.364;2023-05-03T04:27:51;95453.84;;;12.20;69.41
28626;BME280;18905;42.668;23.364;2023-05-03T04:30:19;95456.88;;;12.19;70.13
28626;BME280;18905;42.668;23.364;2023-05-03T04:32:45;95321.84;;;11.40;71.08
28626;BME280;18905;42.668;23.364;2023-05-03T04:35:11;95346.84;;;11.46;74.52
28626;BME280;18905;42.668;23.364;2023-05-03T04:37:39;95336.44;;;11.31;77.70
28626;BME280;18905;42.668;23.364;2023-05-03T04:40:06;95404.66;;;11.84;78.24
28626;BME280;18905;42.668;23.364;2023-05-03T04:42:33;95469.16;;;12.08;76.84
28626;BME280;18905;42.668;23.364;2023-05-03T04:44:59;95437.25;;;11.70;77.40
28626;BME280;18905;42.668;23.364;2023-05-03T04:47:28;95339.09;;;10.97;79.57
28626;BME280;18905;42.668;23.364;2023-05-03T04:49:54;95410.56;;;11.38;79.70
28626;BME280;18905;42.668;23.364;2023-05-03T04:52:20;95491.84;;;11.73;78.37
28626;BME280;18905;42.668;23.364;2023-05-03T04:54:46;95402.69;;;11.03;81.16
28626;BME280;18905;42.668;23.364;2023-05-03T04:57:12;95458.94;;;11.40;80.92
28626;BME280;18905;42.668;23.364;2023-05-03T04:59:40;95496.84;;;11.57;82.36
28626;BME280;18905;42.668;23.364;2023-05-03T05:02:06;95401.72;;;10.99;83.50
28626;BME280;18905;42.668;23.364;2023-05-03T05:04:32;95505.78;;;11.57;86.33
28626;BME280;18905;42.668;23.364;2023-05-03T05:07:00;95418.09;;;11.02;86.29
28626;BME280;18905;42.668;23.364;2023-05-03T05:09:34;95420.56;;;10.82;87.02
28626;BME280;18905;42.668;23.364;2023-05-03T05:12:00;95393.31;;;10.39;90.84
28626;BME280;18905;42.668;23.364;2023-05-03T05:14:29;95471.63;;;10.92;89.87
28626;BME280;18905;42.668;23.364;2023-05-03T05:16:55;95424.75;;;10.66;91.22
28626;BME280;18905;42.668;23.364;2023-05-03T05:19:21;95462.69;;;10.91;91.81
28626;BME280;18905;42.668;23.364;2023-05-03T05:21:47;95334.00;;;10.26;92.92
28626;BME280;18905;42.668;23.364;2023-05-03T05:24:13;95367.63;;;10.42;94.34
28626;BME280;18905;42.668;23.364;2023-05-03T05:26:40;95376.31;;;10.39;95.06
28626;BME280;18905;42.668;23.364;2023-05-03T05:29:07;95363.38;;;10.49;94.00
28626;BME280;18905;42.668;23.364;2023-05-03T05:31:33;95394.84;;;10.84;93.85
28626;BME280;18905;42.668;23.364;2023-05-03T05:33:59;95521.13;;;11.79;90.17
28626;BME280;18905;42.668;23.364;2023-05-03T05:36:25;95499.44;;;11.70;88.25
28626;BME280;18905;42.668;23.364;2023-05-03T05:38:52;95530.41;;;11.95;87.69
28626;BME280;18905;42.668;23.364;2023-05-03T05:41:18;95434.41;;;11.28;86.10
28626;BME280;18905;42.668;23.364;2023-05-03T05:43:44;95416.56;;;11.18;85.47
28626;BME280;18905;42.668;23.364;2023-05-03T05:46:10;95526.09;;;12.02;86.90
28626;BME280;18905;42.668;23.364;2023-05-03T05:48:36;95364.22;;;11.06;85.51
28626;BME280;18905;42.668;23.364;2023-05-03T05:51:02;95419.34;;;11.44;85.00
28626;BME280;18905;42.668;23.364;2023-05-03T05:53:28;95381.78;;;11.34;85.61
28626;BME280;18905;42.668;23.364;2023-05-03T05:55:53;95462.91;;;11.90;82.66
28626;BME280;18905;42.668;23.364;2023-05-03T05:58:19;95473.41;;;11.92;83.62
28626;BME280;18905;42.668;23.364;2023-05-03T06:00:45;95502.41;;;12.00;84.23
28626;BME280;18905;42.668;23.364;2023-05-03T06:03:13;95441.53;;;11.63;84.54
28626;BME280;18905;42.668;23.364;2023-05-03T06:05:40;95530.59;;;12.16;85.61
28626;BME280;18905;42.668;23.364;2023-05-03T06:08:06;95380.00;;;11.21;86.18
28626;BME280;18905;42.668;23.364;2023-05-03T06:10:32;95472.13;;;11.81;84.48
28626;BME280;18905;42.668;23.364;2023-05-03T06:12:58;95374.94;;;11.28;86.98
28626;BME280;18905;42.668;23.364;2023-05-03T06:15:24;95425.94;;;11.68;85.65
28626;BME280;18905;42.668;23.364;2023-05-03T06:17:50;95511.16;;;12.22;85.41
28626;BME280;18905;42.668;23.364;2023-05-03T06:20:19;95432.47;;;11.68;84.05
28626;BME280;18905;42.668;23.364;2023-05-03T06:22:45;95378.63;;;11.32;84.47
28626;BME280;18905;42.668;23.364;2023-05-03T06:25:10;95512.44;;;12.16;85.06
28626;BME280;18905;42.668;23.364;2023-05-03T06:27:38;95517.22;;;12.02;87.27
28626;BME280;18905;42.668;23.364;2023-05-03T06:30:05;95368.25;;;11.25;88.00
28626;BME280;18905;42.668;23.364;2023-05-03T06:32:30;95338.81;;;11.15;85.77
28626;BME280;18905;42.668;23.364;2023-05-03T06:34:56;95375.31;;;11.52;86.92
28626;BME280;18905;42.668;23.364;2023-05-03T06:37:25;95376.88;;;11.44;84.10
28626;BME280;18905;42.668;23.364;2023-05-03T06:39:51;95333.91;;;11.17;85.75
28626;BME280;18905;42.668;23.364;2023-05-03T06:42:16;95418.41;;;11.57;86.15
28626;BME280;18905;42.668;23.364;2023-05-03T06:44:42;95409.41;;;11.78;87.31
28626;BME280;18905;42.668;23.364;2023-05-03T06:47:08;95394.38;;;11.55;87.32
28626;BME280;18905;42.668;23.364;2023-05-03T06:49:34;95348.72;;;11.37;86.50
28626;BME280;18905;42.668;23.364;2023-05-03T06:52:00;95331.53;;;11.41;86.21
28626;BME280;18905;42.668;23.364;2023-05-03T06:54:26;95345.88;;;11.59;85.29
28626;BME280;18905;42.668;23.364;2023-05-03T06:56:52;95430.44;;;12.33;84.29
28626;BME280;18905;42.668;23.364;2023-05-03T06:59:17;95337.91;;;11.54;86.26
28626;BME280;18905;42.668;23.364;2023-05-03T07:01:43;95394.75;;;12.05;84.98
28626;BME280;18905;42.668;23.364;2023-05-03T07:04:08;95387.13;;;12.16;81.86
28626;BME280;18905;42.668;23.364;2023-05-03T07:06:34;95367.72;;;11.97;82.60
28626;BME280;18905;42.668;23.364;2023-05-03T07:09:00;95387.28;;;11.93;84.06
28626;BME280;18905;42.668;23.364;2023-05-03T07:11:26;95302.13;;;11.40;85.95
28626;BME280;18905;42.668;23.364;2023-05-03T07:13:53;95391.75;;;12.07;85.33
28626;BME280;18905;42.668;23.364;2023-05-03T07:16:19;95376.47;;;12.02;85.31
28626;BME280;18905;42.668;23.364;2023-05-03T07:18:46;95338.91;;;11.75;88.84
28626;BME280;18905;42.668;23.364;2023-05-03T07:21:15;95414.50;;;12.40;88.11
28626;BME280;18905;42.668;23.364;2023-05-03T07:23:40;95350.34;;;12.15;85.80
28626;BME280;18905;42.668;23.364;2023-05-03T07:26:07;95381.19;;;12.56;85.94
28626;BME280;18905;42.668;23.364;2023-05-03T07:28:32;95426.00;;;12.91;84.95
28626;BME280;18905;42.668;23.364;2023-05-03T07:30:58;95485.13;;;13.15;84.98
28626;BME280;18905;42.668;23.364;2023-05-03T07:36:01;95394.72;;;12.56;86.30
28626;BME280;18905;42.668;23.364;2023-05-03T07:38:27;95478.00;;;12.93;87.13
28626;BME280;18905;42.668;23.364;2023-05-03T07:40:52;95465.94;;;12.65;89.00
28626;BME280;18905;42.668;23.364;2023-05-03T07:43:18;95380.22;;;12.44;89.41
28626;BME280;18905;42.668;23.364;2023-05-03T07:48:20;95407.44;;;12.73;86.65
28626;BME280;18905;42.668;23.364;2023-05-03T07:50:46;95355.38;;;12.50;87.39
28626;BME280;18905;42.668;23.364;2023-05-03T07:53:13;95354.44;;;12.38;89.82
28626;BME280;18905;42.668;23.364;2023-05-03T07:55:38;95333.19;;;11.85;92.72
28626;BME280;18905;42.668;23.364;2023-05-03T07:58:04;95329.53;;;11.90;92.99
28626;BME280;18905;42.668;23.364;2023-05-03T08:00:30;95347.13;;;11.53;97.14
28626;BME280;18905;42.668;23.364;2023-05-03T08:02:56;95341.78;;;11.87;96.63
28626;BME280;18905;42.668;23.364;2023-05-03T08:05:22;95434.25;;;12.40;96.67
28626;BME280;18905;42.668;23.364;2023-05-03T08:07:48;95406.00;;;12.67;94.95
28626;BME280;18905;42.668;23.364;2023-05-03T08:10:14;95476.69;;;13.08;95.30
28626;BME280;18905;42.668;23.364;2023-05-03T08:12:42;95324.75;;;12.04;96.50
28626;BME280;18905;42.668;23.364;2023-05-03T08:15:08;95406.16;;;12.70;98.60
28626;BME280;18905;42.668;23.364;2023-05-03T08:17:41;95339.28;;;12.54;94.41
28626;BME280;18905;42.668;23.364;2023-05-03T08:20:08;95343.22;;;13.11;91.04
28626;BME280;18905;42.668;23.364;2023-05-03T08:22:33;95459.75;;;14.06;90.33
28626;BME280;18905;42.668;23.364;2023-05-03T08:25:01;95327.25;;;13.09;90.05
28626;BME280;18905;42.668;23.364;2023-05-03T08:27:29;95355.41;;;12.88;90.59
28626;BME280;18905;42.668;23.364;2023-05-03T08:29:55;95362.63;;;12.67;95.19
28626;BME280;18905;42.668;23.364;2023-05-03T08:32:21;95397.56;;;13.72;88.93
28626;BME280;18905;42.668;23.364;2023-05-03T08:34:48;95468.28;;;14.46;87.84
28626;BME280;18905;42.668;23.364;2023-05-03T08:37:14;95339.84;;;13.84;84.71
28626;BME280;18905;42.668;23.364;2023-05-03T08:39:40;95414.56;;;14.96;80.19
28626;BME280;18905;42.668;23.364;2023-05-03T08:42:06;95352.34;;;14.94;78.39
28626;BME280;18905;42.668;23.364;2023-05-03T08:44:35;95352.13;;;15.11;75.86
28626;BME280;18905;42.668;23.364;2023-05-03T08:47:02;95383.97;;;15.95;74.60
28626;BME280;18905;42.668;23.364;2023-05-03T08:49:30;95419.78;;;15.13;77.69
28626;BME280;18905;42.668;23.364;2023-05-03T08:51:57;95343.28;;;14.90;76.71
28626;BME280;18905;42.668;23.364;2023-05-03T08:54:24;95421.56;;;15.53;75.12
28626;BME280;18905;42.668;23.364;2023-05-03T08:56:49;95428.00;;;15.85;76.13
28626;BME280;18905;42.668;23.364;2023-05-03T08:59:15;95480.16;;;16.47;72.34
28626;BME280;18905;42.668;23.364;2023-05-03T09:01:42;95357.91;;;15.22;74.77
28626;BME280;18905;42.668;23.364;2023-05-03T09:04:09;95387.88;;;14.77;76.88
28626;BME280;18905;42.668;23.364;2023-05-03T09:06:35;95368.34;;;15.32;74.30
28626;BME280;18905;42.668;23.364;2023-05-03T09:09:02;95426.63;;;16.03;71.52
28626;BME280;18905;42.668;23.364;2023-05-03T09:11:36;95357.88;;;15.82;71.11
28626;BME280;18905;42.668;23.364;2023-05-03T09:14:16;95466.44;;;16.07;73.22
28626;BME280;18905;42.668;23.364;2023-05-03T09:16:44;95357.47;;;15.32;77.19
28626;BME280;18905;42.668;23.364;2023-05-03T09:19:10;95336.72;;;14.91;81.06
28626;BME280;18905;42.668;23.364;2023-05-03T09:21:46;95452.19;;;15.62;79.71
28626;BME280;18905;42.668;23.364;2023-05-03T09:24:12;95453.19;;;16.06;77.71
28626;BME280;18905;42.668;23.364;2023-05-03T09:26:40;95343.31;;;15.26;78.63
28626;BME280;18905;42.668;23.364;2023-05-03T09:29:08;95408.78;;;16.05;75.39
28626;BME280;18905;42.668;23.364;2023-05-03T09:31:35;95304.31;;;15.34;77.82
28626;BME280;18905;42.668;23.364;2023-05-03T09:34:01;95342.06;;;15.48;78.25
28626;BME280;18905;42.668;23.364;2023-05-03T09:36:44;95303.38;;;14.70;81.12
28626;BME280;18905;42.668;23.364;2023-05-03T09:39:17;95413.81;;;15.79;79.25
28626;BME280;18905;42.668;23.364;2023-05-03T09:41:43;95337.06;;;16.01;79.23
28626;BME280;18905;42.668;23.364;2023-05-03T09:44:09;95310.72;;;16.60;75.66
28626;BME280;18905;42.668;23.364;2023-05-03T09:46:35;95417.13;;;16.91;75.31
28626;BME280;18905;42.668;23.364;2023-05-03T09:49:01;95388.91;;;16.99;72.42
28626;BME280;18905;42.668;23.364;2023-05-03T09:51:28;95419.75;;;17.46;72.28
28626;BME280;18905;42.668;23.364;2023-05-03T09:53:57;95367.25;;;17.37;67.56
28626;BME280;18905;42.668;23.364;2023-05-03T09:56:23;95388.53;;;17.16;70.90
28626;BME280;18905;42.668;23.364;2023-05-03T09:58:52;95298.00;;;16.95;69.07
28626;BME280;18905;42.668;23.364;2023-05-03T10:01:23;95339.72;;;17.42;70.34
28626;BME280;18905;42.668;23.364;2023-05-03T10:03:50;95272.25;;;17.77;66.08
28626;BME280;18905;42.668;23.364;2023-05-03T10:06:18;95395.56;;;18.48;65.12
28626;BME280;18905;42.668;23.364;2023-05-03T10:09:32;95391.50;;;17.54;69.58
28626;BME280;18905;42.668;23.364;2023-05-03T10:12:00;95397.47;;;17.29;69.43
28626;BME280;18905;42.668;23.364;2023-05-03T10:14:29;95407.38;;;17.21;73.18
28626;BME280;18905;42.668;23.364;2023-05-03T10:17:01;95336.19;;;16.80;72.85
28626;BME280;18905;42.668;23.364;2023-05-03T10:19:33;95352.56;;;17.42;72.58
28626;BME280;18905;42.668;23.364;2023-05-03T10:24:36;95373.09;;;18.20;68.46
28626;BME280;18905;42.668;23.364;2023-05-03T10:27:06;95370.28;;;18.17;69.35
28626;BME280;18905;42.668;23.364;2023-05-03T10:32:30;95362.78;;;18.90;66.63
28626;BME280;18905;42.668;23.364;2023-05-03T10:35:14;95365.72;;;18.81;66.20
28626;BME280;18905;42.668;23.364;2023-05-03T10:37:41;95322.16;;;18.12;66.35
28626;BME280;18905;42.668;23.364;2023-05-03T10:42:37;95322.50;;;18.11;67.88
28626;BME280;18905;42.668;23.364;2023-05-03T10:45:03;95333.31;;;18.23;68.36
28626;BME280;18905;42.668;23.364;2023-05-03T10:47:29;95324.13;;;18.50;65.64
28626;BME280;18905;42.668;23.364;2023-05-03T10:55:22;95322.00;;;17.36;71.58
28626;BME280;18905;42.668;23.364;2023-05-03T10:57:53;95338.19;;;17.29;75.39
28626;BME280;18905;42.668;23.364;2023-05-03T11:00:23;95367.78;;;17.58;74.66
28626;BME280;18905;42.668;23.364;2023-05-03T11:03:12;95354.06;;;18.08;72.11
28626;BME280;18905;42.668;23.364;2023-05-03T11:05:43;95334.59;;;18.10;72.79
28626;BME280;18905;42.668;23.364;2023-05-03T11:08:14;95348.06;;;18.56;70.27
28626;BME280;18905;42.668;23.364;2023-05-03T11:10:43;95326.66;;;18.81;68.70
28626;BME280;18905;42.668;23.364;2023-05-03T11:13:08;95310.47;;;18.72;65.20
28626;BME280;18905;42.668;23.364;2023-05-03T11:15:34;95349.81;;;19.09;66.05
28626;BME280;18905;42.668;23.364;2023-05-03T11:18:00;95334.63;;;18.89;65.57
28626;BME280;18905;42.668;23.364;2023-05-03T11:20:26;95344.06;;;18.50;67.61
28626;BME280;18905;42.668;23.364;2023-05-03T11:22:51;95301.78;;;17.91;73.93
28626;BME280;18905;42.668;23.364;2023-05-03T11:25:17;95325.97;;;17.89;74.60
28626;BME280;18905;42.668;23.364;2023-05-03T11:27:43;95309.66;;;18.11;72.53
28626;BME280;18905;42.668;23.364;2023-05-03T11:30:11;95298.47;;;18.20;69.74
28626;BME280;18905;42.668;23.364;2023-05-03T11:32:37;95313.81;;;18.62;68.33
28626;BME280;18905;42.668;23.364;2023-05-03T11:35:05;95295.91;;;18.87;66.98
28626;BME280;18905;42.668;23.364;2023-05-03T11:37:32;95321.50;;;19.43;64.74
28626;BME280;18905;42.668;23.364;2023-05-03T11:39:58;95248.34;;;18.50;66.64
28626;BME280;18905;42.668;23.364;2023-05-03T11:42:24;95301.09;;;18.13;71.04
28626;BME280;18905;42.668;23.364;2023-05-03T11:44:54;95319.06;;;18.52;70.74
28626;BME280;18905;42.668;23.364;2023-05-03T11:47:20;95284.91;;;18.23;73.52
28626;BME280;18905;42.668;23.364;2023-05-03T11:49:52;95294.25;;;17.84;76.46
28626;BME280;18905;42.668;23.364;2023-05-03T11:52:22;95273.84;;;17.44;78.11
28626;BME280;18905;42.668;23.364;2023-05-03T11:54:48;95281.78;;;17.02;81.48
28626;BME280;18905;42.668;23.364;2023-05-03T11:57:14;95287.09;;;17.11;82.07
28626;BME280;18905;42.668;23.364;2023-05-03T11:59:40;95285.59;;;17.13;80.88
28626;BME280;18905;42.668;23.364;2023-05-03T12:02:11;95273.19;;;16.85;81.68
28626;BME280;18905;42.668;23.364;2023-05-03T12:04:38;95297.47;;;17.71;78.55
28626;BME280;18905;42.668;23.364;2023-05-03T12:07:07;95302.38;;;17.81;77.29
28626;BME280;18905;42.668;23.364;2023-05-03T12:09:33;95298.53;;;17.66;78.02
28626;BME280;18905;42.668;23.364;2023-05-03T12:12:00;95291.28;;;17.39;80.06
28626;BME280;18905;42.668;23.364;2023-05-03T12:14:26;95281.41;;;17.35;80.10
28626;BME280;18905;42.668;23.364;2023-05-03T12:16:52;95324.03;;;17.39;80.03
28626;BME280;18905;42.668;23.364;2023-05-03T12:19:28;95280.59;;;17.34;78.99
28626;BME280;18905;42.668;23.364;2023-05-03T12:21:54;95282.94;;;17.01;80.62
28626;BME280;18905;42.668;23.364;2023-05-03T12:24:20;95231.03;;;16.51;83.51
28626;BME280;18905;42.668;23.364;2023-05-03T12:26:50;95276.97;;;16.37;85.28
28626;BME280;18905;42.668;23.364;2023-05-03T12:29:15;95316.53;;;16.59;85.75
28626;BME280;18905;42.668;23.364;2023-05-03T12:31:41;95257.63;;;16.27;87.62
28626;BME280;18905;42.668;23.364;2023-05-03T12:34:07;95308.44;;;16.47;87.72
28626;BME280;18905;42.668;23.364;2023-05-03T12:36:33;95300.31;;;16.23;89.37
28626;BME280;18905;42.668;23.364;2023-05-03T12:38:59;95302.22;;;16.07;91.81
28626;BME280;18905;42.668;23.364;2023-05-03T12:41:25;95318.47;;;16.31;91.92
28626;BME280;18905;42.668;23.364;2023-05-03T12:43:54;95272.47;;;16.29;91.77
28626;BME280;18905;42.668;23.364;2023-05-03T12:46:21;95305.19;;;16.57;90.71
28626;BME280;18905;42.668;23.364;2023-05-03T12:48:48;95284.72;;;16.35;90.34
28626;BME280;18905;42.668;23.364;2023-05-03T12:51:13;95302.59;;;16.48;90.97
28626;BME280;18905;42.668;23.364;2023-05-03T12:53:39;95267.38;;;16.12;91.65
28626;BME280;18905;42.668;23.364;2023-05-03T12:56:05;95304.59;;;16.36;93.08
28626;BME280;18905;42.668;23.364;2023-05-03T12:58:31;95290.47;;;16.46;95.42
28626;BME280;18905;42.668;23.364;2023-05-03T13:00:57;95297.34;;;16.28;99.81
28626;BME280;18905;42.668;23.364;2023-05-03T13:03:22;95268.31;;;16.04;100.00
28626;BME280;18905;42.668;23.364;2023-05-03T13:05:48;95298.34;;;15.80;100.00
28626;BME280;18905;42.668;23.364;2023-05-03T13:08:13;95274.47;;;15.62;100.00
28626;BME280;18905;42.668;23.364;2023-05-03T13:10:39;95305.22;;;15.62;100.00
28626;BME280;18905;42.668;23.364;2023-05-03T13:13:05;95253.78;;;15.21;100.00